Time;durP1;ratioP1;P1;durP2;ratioP2;P2;SDS_P1;SDS_P2;PMS_P1;PMS_P2;Temp;Humidity;BMP_temperature;BMP_pressure;BME280_temperature;BME280_humidity;BME280_pressure;Samples;Min_cycle;Max_cycle;Signal;HPM_P1;HPM_P2
2022/11/28 00:01:44;;;;;;;0.05;0.05;;;5.60;99.90;;;;;;5051880;28;20432;-71
2022/11/28 00:04:10;;;;;;;0.00;0.00;;;5.60;99.90;;;;;;5052434;28;20174;-71
2022/11/28 00:06:44;;;;;;;0.15;0.15;;;5.60;99.90;;;;;;5052369;28;20189;-71
2022/11/28 00:09:10;;;;;;;0.00;0.00;;;5.60;99.90;;;;;;5052512;28;20235;-71
2022/11/28 00:11:38;;;;;;;0.10;0.10;;;5.60;99.90;;;;;;5052193;28;20209;-71
2022/11/28 00:14:04;;;;;;;0.00;0.00;;;5.60;99.90;;;;;;5051963;28;20260;-71
2022/11/28 00:16:29;;;;;;;0.00;0.00;;;5.50;99.90;;;;;;5052250;28;20625;-71
2022/11/28 00:18:55;;;;;;;0.00;0.00;;;5.50;99.90;;;;;;5052063;28;20181;-71
2022/11/28 00:21:21;;;;;;;0.10;0.10;;;5.50;99.90;;;;;;5050835;28;20314;-71
2022/11/28 00:23:47;;;;;;;0.00;0.00;;;5.50;99.90;;;;;;5050793;28;20676;-70
2022/11/28 00:26:16;;;;;;;0.00;0.00;;;5.50;99.90;;;;;;5050833;28;20266;-70
2022/11/28 00:28:41;;;;;;;0.10;0.10;;;5.50;99.90;;;;;;5051966;28;20166;-70
2022/11/28 00:31:15;;;;;;;0.00;0.00;;;5.40;99.90;;;;;;5051880;28;20538;-71
2022/11/28 00:33:41;;;;;;;0.00;0.00;;;5.40;99.90;;;;;;5052982;28;20193;-70
2022/11/28 00:36:07;;;;;;;0.00;0.00;;;5.30;99.90;;;;;;5051845;28;20534;-70
2022/11/28 00:38:32;;;;;;;0.10;0.10;;;5.30;99.90;;;;;;5051944;28;20185;-70
2022/11/28 00:41:06;;;;;;;0.32;0.32;;;5.30;99.90;;;;;;5051703;28;20462;-70
2022/11/28 00:43:32;;;;;;;0.00;0.00;;;5.20;99.90;;;;;;5050595;28;20228;-70
2022/11/28 00:45:58;;;;;;;0.00;0.00;;;5.20;99.90;;;;;;5051783;28;20640;-70
2022/11/28 00:48:24;;;;;;;0.00;0.00;;;5.10;99.90;;;;;;5051743;28;20223;-71
2022/11/28 00:50:51;;;;;;;0.00;0.00;;;5.00;99.90;;;;;;5051787;28;20182;-71
2022/11/28 00:53:16;;;;;;;0.00;0.00;;;5.00;99.90;;;;;;5051654;28;20235;-70
2022/11/28 00:55:42;;;;;;;0.00;0.00;;;4.90;99.90;;;;;;5051685;28;20181;-70
2022/11/28 00:58:08;;;;;;;0.35;0.35;;;4.90;99.90;;;;;;5051733;28;20770;-70
2022/11/28 01:00:33;;;;;;;0.10;0.10;;;4.80;99.90;;;;;;5052867;28;20174;-71
2022/11/28 01:02:59;;;;;;;0.00;0.00;;;4.80;99.90;;;;;;5054025;28;20235;-71
2022/11/28 01:05:25;;;;;;;0.10;0.10;;;4.70;99.90;;;;;;5055251;28;20182;-71
2022/11/28 01:07:51;;;;;;;0.00;0.00;;;4.70;99.90;;;;;;5054877;28;20205;-71
2022/11/28 01:10:17;;;;;;;0.22;0.22;;;4.70;99.90;;;;;;5054204;28;20219;-70
2022/11/28 01:12:42;;;;;;;0.00;0.00;;;4.60;99.90;;;;;;5055137;28;20209;-71
2022/11/28 01:15:10;;;;;;;0.10;0.10;;;4.50;99.90;;;;;;5055641;28;20189;-71
2022/11/28 01:17:36;;;;;;;0.00;0.00;;;4.50;99.90;;;;;;5055451;28;20177;-71
2022/11/28 01:20:04;;;;;;;0.00;0.00;;;4.50;99.90;;;;;;5055392;28;20174;-71
2022/11/28 01:22:30;;;;;;;0.00;0.00;;;4.40;99.90;;;;;;5055322;28;20174;-71
2022/11/28 01:24:55;;;;;;;0.00;0.00;;;4.40;99.90;;;;;;5055207;28;20177;-71
2022/11/28 01:27:21;;;;;;;0.00;0.00;;;4.40;99.90;;;;;;5055291;28;20177;-70
2022/11/28 01:29:47;;;;;;;0.00;0.00;;;4.40;99.90;;;;;;5053551;28;20165;-70
2022/11/28 01:32:13;;;;;;;0.00;0.00;;;4.40;99.90;;;;;;5054762;28;20252;-71
2022/11/28 01:34:38;;;;;;;0.00;0.00;;;4.30;99.90;;;;;;5055129;28;20205;-71
2022/11/28 01:37:04;;;;;;;0.00;0.00;;;4.40;99.90;;;;;;5054926;28;20540;-70
2022/11/28 01:39:30;;;;;;;0.10;0.10;;;4.40;99.90;;;;;;5055279;28;20169;-71
2022/11/28 01:41:55;;;;;;;0.38;0.15;;;4.40;99.90;;;;;;5055008;28;20181;-71
2022/11/28 01:44:21;;;;;;;0.00;0.00;;;4.40;99.90;;;;;;5054836;28;20188;-71
2022/11/28 01:46:46;;;;;;;0.00;0.00;;;4.40;99.90;;;;;;5054908;28;20181;-71
2022/11/28 01:49:25;;;;;;;0.00;0.00;;;4.40;99.90;;;;;;5054798;28;20169;-71
2022/11/28 01:51:57;;;;;;;0.00;0.00;;;4.30;99.90;;;;;;5054740;28;20255;-71
2022/11/28 01:54:24;;;;;;;0.00;0.00;;;4.30;99.90;;;;;;5053437;28;20177;-71
2022/11/28 01:56:55;;;;;;;0.30;0.30;;;4.30;99.90;;;;;;5054752;28;20170;-71
2022/11/28 01:59:25;;;;;;;0.00;0.00;;;4.30;99.90;;;;;;5054678;28;20181;-71
2022/11/28 02:01:51;;;;;;;0.00;0.00;;;4.30;99.90;;;;;;5054688;28;20178;-71
2022/11/28 02:04:16;;;;;;;0.08;0.08;;;4.30;99.90;;;;;;5054614;28;20173;-71
2022/11/28 02:06:42;;;;;;;0.00;0.00;;;4.40;99.90;;;;;;5054496;28;20228;-71
2022/11/28 02:09:13;;;;;;;0.00;0.00;;;4.30;99.90;;;;;;5054484;28;20188;-71
2022/11/28 02:12:06;;;;;;;0.00;0.00;;;4.30;99.90;;;;;;5053257;28;20220;-71
2022/11/28 02:14:44;;;;;;;0.10;0.10;;;4.40;99.90;;;;;;5053116;28;20233;-72
2022/11/28 02:17:19;;;;;;;0.03;0.03;;;4.30;99.90;;;;;;5054334;28;20173;-71
2022/11/28 02:20:01;;;;;;;0.10;0.10;;;4.30;99.90;;;;;;5054239;28;20177;-71
2022/11/28 02:23:00;;;;;;;0.00;0.00;;;4.30;99.90;;;;;;5054303;28;20235;-71
2022/11/28 02:25:41;;;;;;;0.00;0.00;;;4.30;99.90;;;;;;5063543;28;20271;-71
2022/11/28 02:28:09;;;;;;;0.00;0.00;;;4.40;99.90;;;;;;5054213;28;20227;-71
2022/11/28 02:31:01;;;;;;;0.00;0.00;;;4.40;99.90;;;;;;5054193;28;20189;-71
2022/11/28 02:33:34;;;;;;;0.00;0.00;;;4.40;99.90;;;;;;5049381;28;20194;-71
2022/11/28 02:36:14;;;;;;;0.08;0.08;;;4.40;99.90;;;;;;5033984;28;20209;-71
2022/11/28 02:39:02;;;;;;;0.52;0.43;;;4.50;99.90;;;;;;5034028;28;20190;-71
2022/11/28 02:41:54;;;;;;;0.00;0.00;;;4.50;99.90;;;;;;5052781;28;20579;-71
2022/11/28 02:44:51;;;;;;;0.17;0.17;;;4.50;99.90;;;;;;5053747;28;20255;-71
2022/11/28 02:47:30;;;;;;;0.00;0.00;;;4.50;99.90;;;;;;5047962;28;20194;-71
2022/11/28 02:50:14;;;;;;;0.03;0.03;;;4.50;99.90;;;;;;5033883;28;20180;-71
2022/11/28 02:52:50;;;;;;;0.00;0.00;;;4.50;99.90;;;;;;5033561;28;20240;-71
2022/11/28 02:55:17;;;;;;;0.00;0.00;;;4.50;99.90;;;;;;5050744;28;20204;-71
2022/11/28 02:57:48;;;;;;;0.00;0.00;;;4.40;99.90;;;;;;5053572;28;20185;-71
2022/11/28 03:00:35;;;;;;;0.00;0.00;;;4.50;99.90;;;;;;5053680;28;20638;-71
2022/11/28 03:03:27;;;;;;;0.05;0.05;;;4.40;99.90;;;;;;5053389;28;20716;-71
2022/11/28 03:06:26;;;;;;;0.10;0.10;;;4.40;99.90;;;;;;5053354;28;20177;-71
2022/11/28 03:09:04;;;;;;;0.00;0.00;;;4.40;99.90;;;;;;5053343;28;20223;-71
2022/11/28 03:12:00;;;;;;;0.00;0.00;;;4.40;99.90;;;;;;5053319;28;20197;-71
2022/11/28 03:15:01;;;;;;;0.00;0.00;;;4.30;99.90;;;;;;5053190;28;20309;-71
2022/11/28 03:18:09;;;;;;;0.10;0.10;;;4.30;99.90;;;;;;5031256;28;20196;-71
2022/11/28 03:20:47;;;;;;;0.00;0.00;;;4.30;99.90;;;;;;5051984;28;20256;-71
2022/11/28 03:23:25;;;;;;;0.00;0.00;;;4.30;99.90;;;;;;5052812;28;20177;-71
2022/11/28 03:26:26;;;;;;;0.00;0.00;;;4.20;99.90;;;;;;5053081;28;20192;-71
2022/11/28 03:29:00;;;;;;;0.03;0.03;;;4.20;99.90;;;;;;5045537;28;20221;-71
2022/11/28 03:31:37;;;;;;;0.00;0.00;;;4.20;99.90;;;;;;5052932;28;20207;-71
2022/11/28 03:34:08;;;;;;;0.00;0.00;;;4.20;99.90;;;;;;5052643;28;20238;-71
2022/11/28 03:36:58;;;;;;;0.00;0.00;;;4.20;99.90;;;;;;5053044;28;20260;-70
2022/11/28 03:39:29;;;;;;;0.00;0.00;;;4.20;99.90;;;;;;5052758;28;20667;-71
2022/11/28 03:42:01;;;;;;;0.00;0.00;;;4.20;99.90;;;;;;5052733;28;20181;-71
2022/11/28 03:44:30;;;;;;;0.10;0.10;;;4.20;99.90;;;;;;5051047;28;20637;-71
2022/11/28 03:46:59;;;;;;;0.00;0.00;;;4.20;99.90;;;;;;5052417;28;20267;-71
2022/11/28 03:49:30;;;;;;;0.03;0.03;;;4.20;99.90;;;;;;5052752;28;20165;-71
2022/11/28 03:52:04;;;;;;;0.10;0.10;;;4.20;99.90;;;;;;5052285;28;20351;-71
2022/11/28 03:54:52;;;;;;;0.00;0.00;;;4.20;99.90;;;;;;5051376;28;20188;-70
2022/11/28 03:57:33;;;;;;;0.08;0.08;;;4.20;99.90;;;;;;5052429;28;20166;-70
2022/11/28 04:00:03;;;;;;;0.05;0.05;;;4.20;99.90;;;;;;5052341;28;20181;-70
2022/11/28 04:02:30;;;;;;;0.28;0.28;;;4.20;99.90;;;;;;5051171;28;20181;-71
2022/11/28 04:05:06;;;;;;;0.05;0.05;;;4.20;99.90;;;;;;5052393;28;20296;-71
2022/11/28 04:07:45;;;;;;;0.38;0.38;;;4.20;99.90;;;;;;5052487;28;20176;-71
2022/11/28 04:10:16;;;;;;;0.00;0.00;;;4.20;99.90;;;;;;5051142;28;20535;-71
2022/11/28 04:12:53;;;;;;;0.00;0.00;;;4.20;99.90;;;;;;5031969;28;20293;-71
2022/11/28 04:15:33;;;;;;;0.00;0.00;;;4.20;99.90;;;;;;5046511;28;20181;-71
2022/11/28 04:18:09;;;;;;;0.00;0.00;;;4.20;99.90;;;;;;5052126;28;20199;-71
2022/11/28 04:20:43;;;;;;;0.00;0.00;;;4.20;99.90;;;;;;5052241;28;20264;-71
2022/11/28 04:23:12;;;;;;;0.20;0.20;;;4.20;99.90;;;;;;5052195;28;20169;-71
2022/11/28 04:25:42;;;;;;;0.00;0.00;;;4.20;99.90;;;;;;5052139;28;20181;-70
2022/11/28 04:28:14;;;;;;;0.00;0.00;;;4.20;99.90;;;;;;5051802;28;20191;-71
2022/11/28 04:30:42;;;;;;;0.10;0.10;;;4.20;99.90;;;;;;5051728;28;20667;-71
2022/11/28 04:33:11;;;;;;;0.28;0.20;;;4.20;99.90;;;;;;5050374;28;20217;-73
2022/11/28 04:35:44;;;;;;;0.10;0.10;;;4.20;99.90;;;;;;5051325;28;20261;-72
2022/11/28 04:38:12;;;;;;;0.00;0.00;;;4.20;99.90;;;;;;5051725;28;20652;-73
2022/11/28 04:40:43;;;;;;;0.00;0.00;;;4.20;99.90;;;;;;5051567;28;20243;-71
2022/11/28 04:43:17;;;;;;;0.00;0.00;;;4.20;99.90;;;;;;5050823;28;20208;-72
2022/11/28 04:45:47;;;;;;;0.00;0.00;;;4.20;99.90;;;;;;5051513;28;20177;-71
2022/11/28 04:48:13;;;;;;;0.10;0.03;;;4.20;99.90;;;;;;5051760;28;20209;-71
2022/11/28 04:51:11;;;;;;;0.00;0.00;;;4.20;99.90;;;;;;5051526;28;20227;-71
2022/11/28 04:53:46;;;;;;;0.00;0.00;;;4.20;99.90;;;;;;5050024;28;20220;-69
2022/11/28 04:56:21;;;;;;;0.00;0.00;;;4.20;99.90;;;;;;5050517;28;20172;-67
2022/11/28 04:58:49;;;;;;;0.10;0.10;;;4.10;99.90;;;;;;5051317;28;20193;-70
2022/11/28 05:01:24;;;;;;;0.00;0.00;;;4.10;99.90;;;;;;5050999;28;20217;-66
2022/11/28 05:03:50;;;;;;;0.00;0.00;;;4.10;99.90;;;;;;5050768;28;20177;-69
2022/11/28 05:06:31;;;;;;;0.00;0.00;;;4.00;99.90;;;;;;5050410;28;20216;-69
2022/11/28 05:08:57;;;;;;;0.00;0.00;;;4.00;99.90;;;;;;5051259;28;20188;-69
2022/11/28 05:11:23;;;;;;;0.00;0.00;;;4.00;99.90;;;;;;5050998;28;20209;-67
2022/11/28 05:13:48;;;;;;;0.00;0.00;;;4.00;99.90;;;;;;5051449;28;20217;-71
2022/11/28 05:16:15;;;;;;;0.00;0.00;;;4.00;99.90;;;;;;5051221;28;20201;-73
2022/11/28 05:18:41;;;;;;;0.15;0.15;;;4.00;99.90;;;;;;5051574;28;20189;-71
2022/11/28 05:21:07;;;;;;;0.00;0.00;;;4.00;99.90;;;;;;5049780;28;20177;-71
2022/11/28 05:23:39;;;;;;;0.55;0.20;;;4.00;99.90;;;;;;5051562;28;20679;-71
2022/11/28 05:26:10;;;;;;;0.03;0.03;;;3.90;99.90;;;;;;5051549;28;20170;-72
2022/11/28 05:28:36;;;;;;;0.65;0.65;;;3.90;99.90;;;;;;5050623;28;20208;-71
2022/11/28 05:31:02;;;;;;;0.00;0.00;;;3.90;99.90;;;;;;5051256;28;20178;-72
2022/11/28 05:33:29;;;;;;;0.00;0.00;;;3.90;99.90;;;;;;5051284;28;20194;-71
2022/11/28 05:35:56;;;;;;;0.00;0.00;;;3.90;99.90;;;;;;5051456;28;20173;-71
2022/11/28 05:38:22;;;;;;;0.00;0.00;;;3.90;99.90;;;;;;5051434;28;20181;-71
2022/11/28 05:40:48;;;;;;;0.00;0.00;;;3.90;99.90;;;;;;5049866;28;20174;-71
2022/11/28 05:43:13;;;;;;;0.10;0.10;;;3.90;99.90;;;;;;5051311;28;20180;-72
2022/11/28 05:45:42;;;;;;;0.00;0.00;;;3.90;99.90;;;;;;5051297;28;20234;-72
2022/11/28 05:48:08;;;;;;;0.10;0.10;;;3.90;99.90;;;;;;5053640;28;20212;-71
2022/11/28 05:50:34;;;;;;;0.17;0.17;;;3.90;99.90;;;;;;5054950;28;20220;-71
2022/11/28 05:52:59;;;;;;;0.70;0.32;;;3.90;99.90;;;;;;5054713;28;20252;-72
2022/11/28 05:55:25;;;;;;;0.03;0.03;;;3.90;99.90;;;;;;5054845;28;20173;-71
2022/11/28 05:57:51;;;;;;;0.00;0.00;;;3.90;99.90;;;;;;5054254;28;20177;-71
2022/11/28 06:00:17;;;;;;;0.00;0.00;;;3.90;99.90;;;;;;5054690;28;20178;-71
2022/11/28 06:02:43;;;;;;;0.30;0.30;;;3.80;99.90;;;;;;5053386;28;20323;-71
2022/11/28 06:05:09;;;;;;;0.30;0.25;;;3.80;99.90;;;;;;5054529;28;20170;-71
2022/11/28 06:07:34;;;;;;;0.05;0.05;;;3.80;99.90;;;;;;5053420;28;20192;-72
2022/11/28 06:10:00;;;;;;;0.00;0.00;;;3.80;99.90;;;;;;5054490;28;20176;-72
2022/11/28 06:12:25;;;;;;;0.00;0.00;;;3.80;99.90;;;;;;5053157;28;20209;-71
2022/11/28 06:14:51;;;;;;;0.20;0.20;;;3.80;99.90;;;;;;5054319;28;20296;-72
2022/11/28 06:17:16;;;;;;;0.00;0.00;;;3.80;99.90;;;;;;5054436;28;20187;-71
2022/11/28 06:19:42;;;;;;;0.30;0.30;;;3.80;99.90;;;;;;5054391;28;20171;-71
2022/11/28 06:22:08;;;;;;;0.00;0.00;;;3.80;99.90;;;;;;5053031;28;20216;-71
2022/11/28 06:24:34;;;;;;;1.45;0.32;;;3.80;99.90;;;;;;5053042;28;20683;-72
2022/11/28 06:26:59;;;;;;;0.00;0.00;;;3.80;99.90;;;;;;5052961;28;20205;-71
2022/11/28 06:29:25;;;;;;;0.03;0.03;;;3.80;99.90;;;;;;5054142;28;20169;-72
2022/11/28 06:31:50;;;;;;;0.00;0.00;;;3.80;99.90;;;;;;5054006;28;20730;-72
2022/11/28 06:34:16;;;;;;;0.00;0.00;;;3.80;99.90;;;;;;5054220;28;20676;-71
2022/11/28 06:36:43;;;;;;;0.10;0.10;;;3.80;99.90;;;;;;5054138;28;20177;-72
2022/11/28 06:39:13;;;;;;;0.10;0.10;;;3.70;99.90;;;;;;5052791;28;20649;-72
2022/11/28 06:41:39;;;;;;;0.10;0.10;;;3.70;99.90;;;;;;5034057;28;20373;-71
2022/11/28 06:44:04;;;;;;;0.00;0.00;;;3.70;99.90;;;;;;5034054;28;20170;-72
2022/11/28 06:46:30;;;;;;;0.10;0.10;;;3.80;99.90;;;;;;5034078;28;20174;-72
2022/11/28 06:48:55;;;;;;;1.10;0.25;;;3.80;99.90;;;;;;5033908;28;20205;-72
2022/11/28 06:51:21;;;;;;;0.00;0.00;;;3.80;99.90;;;;;;5033848;28;20253;-72
2022/11/28 06:53:47;;;;;;;0.00;0.00;;;3.80;99.90;;;;;;5033677;28;20183;-72
2022/11/28 06:56:16;;;;;;;0.00;0.00;;;3.80;99.90;;;;;;5033847;28;20170;-71
2022/11/28 06:58:42;;;;;;;0.00;0.00;;;3.80;99.90;;;;;;5033046;28;20257;-71
2022/11/28 07:01:17;;;;;;;0.00;0.00;;;3.80;99.90;;;;;;5033628;28;20679;-71
2022/11/28 07:03:43;;;;;;;0.15;0.15;;;3.80;99.90;;;;;;5033674;28;20200;-71
2022/11/28 07:06:10;;;;;;;0.00;0.00;;;3.80;99.90;;;;;;5015865;28;20197;-71
2022/11/28 07:08:36;;;;;;;0.13;0.13;;;3.90;99.90;;;;;;5033627;28;20178;-71
2022/11/28 07:11:16;;;;;;;0.00;0.00;;;3.90;99.90;;;;;;5033470;28;20179;-72
2022/11/28 07:13:46;;;;;;;0.10;0.10;;;3.90;99.90;;;;;;5033319;28;20660;-72
2022/11/28 07:16:15;;;;;;;0.00;0.00;;;3.90;99.90;;;;;;5033542;28;20224;-72
2022/11/28 07:18:42;;;;;;;0.17;0.17;;;3.90;99.90;;;;;;5033446;28;20225;-71
2022/11/28 07:21:08;;;;;;;0.05;0.05;;;3.90;99.90;;;;;;5033229;28;20232;-71
2022/11/28 07:23:33;;;;;;;0.00;0.00;;;3.90;99.90;;;;;;5032132;28;20810;-71
2022/11/28 07:26:00;;;;;;;0.00;0.00;;;4.00;99.90;;;;;;5033234;28;20181;-71
2022/11/28 07:28:27;;;;;;;0.00;0.00;;;4.00;99.90;;;;;;5033184;28;20224;-71
2022/11/28 07:31:04;;;;;;;0.13;0.13;;;4.00;99.90;;;;;;5033202;28;20174;-71
2022/11/28 07:33:31;;;;;;;0.00;0.00;;;4.00;99.90;;;;;;5041424;28;20761;-71
2022/11/28 07:36:05;;;;;;;0.00;0.00;;;4.00;99.90;;;;;;5053002;28;20173;-71
2022/11/28 07:38:31;;;;;;;0.00;0.00;;;4.10;99.90;;;;;;5053153;28;20371;-71
2022/11/28 07:41:08;;;;;;;0.00;0.00;;;4.10;99.90;;;;;;5052763;28;20185;-71
2022/11/28 07:43:34;;;;;;;0.30;0.30;;;4.20;99.90;;;;;;5051631;28;20181;-71
2022/11/28 07:46:04;;;;;;;0.00;0.00;;;4.20;99.90;;;;;;5052822;28;20165;-71
2022/11/28 07:48:30;;;;;;;0.00;0.00;;;4.20;99.90;;;;;;5051664;28;20173;-71
2022/11/28 07:50:55;;;;;;;0.00;0.00;;;4.30;99.90;;;;;;5052758;28;20180;-71
2022/11/28 07:53:21;;;;;;;0.00;0.00;;;4.30;99.90;;;;;;5051414;28;20209;-71
2022/11/28 07:55:46;;;;;;;0.00;0.00;;;4.30;99.90;;;;;;5052534;28;20186;-71
2022/11/28 07:58:12;;;;;;;0.03;0.03;;;4.30;99.90;;;;;;5052722;28;20178;-71
2022/11/28 08:00:38;;;;;;;0.00;0.00;;;4.40;99.90;;;;;;5052575;28;20637;-71
2022/11/28 08:03:03;;;;;;;0.08;0.08;;;4.40;99.90;;;;;;5052473;28;20522;-71
2022/11/28 08:05:29;;;;;;;0.45;0.45;;;4.40;99.90;;;;;;5052446;28;20177;-71
2022/11/28 08:07:54;;;;;;;0.03;0.03;;;4.50;99.90;;;;;;5051314;28;20178;-71
2022/11/28 08:10:20;;;;;;;0.05;0.05;;;4.50;99.90;;;;;;5052470;28;20181;-71
2022/11/28 08:12:45;;;;;;;0.00;0.00;;;4.50;99.90;;;;;;5052145;28;20216;-71
2022/11/28 08:15:11;;;;;;;0.00;0.00;;;4.50;99.90;;;;;;5052312;28;20259;-71
2022/11/28 08:17:37;;;;;;;0.28;0.28;;;4.60;99.90;;;;;;5052290;28;20193;-71
2022/11/28 08:20:02;;;;;;;0.17;0.13;;;4.60;99.90;;;;;;5052211;28;20177;-71
2022/11/28 08:22:28;;;;;;;0.00;0.00;;;4.60;99.90;;;;;;5052241;28;20265;-71
2022/11/28 08:24:53;;;;;;;0.10;0.10;;;4.60;99.90;;;;;;5052166;28;20193;-71
2022/11/28 08:27:19;;;;;;;0.35;0.35;;;4.60;99.90;;;;;;5052205;28;20184;-71
2022/11/28 08:29:44;;;;;;;0.32;0.32;;;4.70;99.90;;;;;;5052003;28;20177;-71
2022/11/28 08:32:10;;;;;;;0.08;0.08;;;4.70;99.90;;;;;;5050823;28;20737;-71
2022/11/28 08:34:36;;;;;;;0.00;0.00;;;4.80;99.90;;;;;;5052059;28;20185;-71
2022/11/28 08:37:01;;;;;;;0.00;0.00;;;4.80;99.90;;;;;;5052051;28;20256;-71
2022/11/28 08:39:27;;;;;;;0.00;0.00;;;4.80;99.90;;;;;;5051909;28;20288;-71
2022/11/28 08:41:55;;;;;;;0.05;0.05;;;4.80;99.90;;;;;;5052064;28;20185;-71
2022/11/28 08:44:22;;;;;;;0.00;0.00;;;4.80;99.90;;;;;;5051955;28;20593;-71
2022/11/28 08:46:47;;;;;;;0.10;0.10;;;4.80;99.90;;;;;;5051787;28;20215;-71
2022/11/28 08:49:13;;;;;;;0.00;0.00;;;4.80;99.90;;;;;;5051964;28;20197;-71
2022/11/28 08:51:39;;;;;;;0.00;0.00;;;4.80;99.90;;;;;;5051900;28;20239;-71
2022/11/28 08:54:04;;;;;;;0.00;0.00;;;4.90;99.90;;;;;;5051847;28;20189;-71
2022/11/28 08:56:30;;;;;;;0.10;0.10;;;4.90;99.90;;;;;;5051909;28;20203;-71
2022/11/28 08:58:56;;;;;;;0.00;0.00;;;5.00;99.90;;;;;;5051820;28;20182;-71
2022/11/28 09:01:23;;;;;;;0.00;0.00;;;5.00;99.90;;;;;;5050635;28;20621;-72
2022/11/28 09:03:49;;;;;;;0.00;0.00;;;5.10;99.90;;;;;;5051692;28;20177;-71
2022/11/28 09:06:16;;;;;;;0.10;0.10;;;5.20;99.90;;;;;;5051857;28;20173;-71
2022/11/28 09:08:42;;;;;;;0.05;0.05;;;5.20;99.90;;;;;;5052049;28;20219;-71
2022/11/28 09:11:09;;;;;;;0.00;0.00;;;5.20;99.90;;;;;;5051690;28;20165;-71
2022/11/28 09:13:36;;;;;;;0.00;0.00;;;5.20;99.90;;;;;;5051642;28;20777;-71
2022/11/28 09:16:03;;;;;;;0.17;0.17;;;5.30;99.90;;;;;;5051668;28;20201;-71
2022/11/28 09:18:28;;;;;;;0.00;0.00;;;5.40;99.90;;;;;;5051888;28;20243;-71
2022/11/28 09:21:02;;;;;;;0.00;0.00;;;5.40;99.90;;;;;;5051940;28;20252;-71
2022/11/28 09:23:28;;;;;;;0.20;0.20;;;5.40;99.90;;;;;;5055572;28;20224;-71
2022/11/28 09:25:54;;;;;;;0.00;0.00;;;5.40;99.90;;;;;;5055460;28;20189;-71
2022/11/28 09:28:20;;;;;;;0.00;0.00;;;5.50;99.90;;;;;;5055511;28;20220;-71
2022/11/28 09:30:45;;;;;;;0.30;0.30;;;5.50;99.90;;;;;;5055336;28;20178;-71
2022/11/28 09:33:12;;;;;;;0.03;0.03;;;5.50;99.90;;;;;;5055248;28;20628;-71
2022/11/28 09:35:38;;;;;;;0.00;0.00;;;5.60;99.90;;;;;;5055360;28;20205;-71
2022/11/28 09:38:04;;;;;;;0.00;0.00;;;5.60;99.90;;;;;;5055181;28;20192;-71
2022/11/28 09:40:37;;;;;;;0.00;0.00;;;5.60;99.90;;;;;;5055143;28;20182;-71
2022/11/28 09:43:17;;;;;;;0.10;0.10;;;5.60;99.90;;;;;;5055122;28;20174;-71
2022/11/28 09:45:47;;;;;;;0.00;0.00;;;5.60;99.90;;;;;;5055186;28;20188;-71
2022/11/28 09:48:23;;;;;;;0.00;0.00;;;5.60;99.90;;;;;;5061051;28;20178;-72
2022/11/28 09:50:53;;;;;;;0.00;0.00;;;5.70;99.90;;;;;;5045328;28;20573;-69
2022/11/28 09:54:02;;;;;;;0.00;0.00;;;5.70;99.90;;;;;;5053157;28;20213;-68
2022/11/28 09:56:28;;;;;;;0.00;0.00;;;5.70;99.90;;;;;;5034373;28;20225;-67
2022/11/28 09:58:57;;;;;;;0.80;0.30;;;5.80;99.90;;;;;;5053542;28;20258;-67
2022/11/28 10:01:35;;;;;;;0.08;0.08;;;5.80;99.90;;;;;;5054559;28;20182;-68
2022/11/28 10:04:42;;;;;;;0.00;0.00;;;5.90;99.90;;;;;;5054430;28;20185;-67
2022/11/28 10:07:52;;;;;;;0.00;0.00;;;6.00;99.90;;;;;;5021635;28;20208;-67
2022/11/28 10:10:53;;;;;;;0.00;0.00;;;6.10;99.90;;;;;;5037549;28;20226;-68
2022/11/28 10:13:31;;;;;;;0.00;0.00;;;6.20;99.90;;;;;;5041918;28;20220;-68
2022/11/28 10:16:30;;;;;;;0.00;0.00;;;6.30;99.90;;;;;;5055381;28;20239;-68
2022/11/28 10:19:04;;;;;;;0.00;0.00;;;6.40;99.90;;;;;;5041654;28;20181;-68
2022/11/28 10:21:56;;;;;;;0.00;0.00;;;6.40;99.90;;;;;;5054028;28;20260;-68
2022/11/28 10:24:49;;;;;;;0.10;0.10;;;6.50;99.90;;;;;;5052026;28;20255;-68
2022/11/28 10:27:15;;;;;;;0.00;0.00;;;6.60;99.90;;;;;;5052168;28;20193;-67
2022/11/28 10:30:05;;;;;;;0.00;0.00;;;6.70;99.90;;;;;;5053395;28;20182;-68
2022/11/28 10:32:36;;;;;;;0.00;0.00;;;6.80;99.90;;;;;;5052221;28;20213;-67
2022/11/28 10:35:12;;;;;;;0.00;0.00;;;6.80;99.90;;;;;;5053475;28;20173;-68
2022/11/28 10:37:38;;;;;;;0.00;0.00;;;6.90;99.90;;;;;;5053480;28;20217;-68
2022/11/28 10:40:34;;;;;;;0.10;0.10;;;6.90;99.90;;;;;;5053488;28;20219;-68
2022/11/28 10:43:22;;;;;;;0.00;0.00;;;7.00;99.90;;;;;;5037007;28;20184;-67
2022/11/28 10:46:11;;;;;;;0.30;0.10;;;7.10;99.90;;;;;;5052888;28;20247;-68
2022/11/28 10:49:09;;;;;;;0.13;0.13;;;7.20;99.90;;;;;;5053519;28;20189;-68
2022/11/28 10:51:38;;;;;;;0.00;0.00;;;7.30;99.90;;;;;;5053680;28;20216;-68
2022/11/28 10:54:32;;;;;;;0.00;0.00;;;7.40;99.90;;;;;;5053328;28;20185;-68
2022/11/28 10:57:06;;;;;;;0.00;0.00;;;7.50;99.90;;;;;;5045358;28;20186;-68
2022/11/28 10:59:55;;;;;;;0.00;0.00;;;7.50;99.90;;;;;;5042369;28;20182;-68
2022/11/28 11:02:34;;;;;;;0.00;0.00;;;7.60;99.90;;;;;;5053572;28;20173;-68
2022/11/28 11:05:00;;;;;;;0.00;0.00;;;7.70;99.90;;;;;;5037665;28;20188;-68
2022/11/28 11:07:29;;;;;;;0.00;0.00;;;7.70;99.90;;;;;;5053369;28;20178;-68
2022/11/28 11:10:16;;;;;;;0.00;0.00;;;7.70;99.90;;;;;;5053252;28;20584;-68
2022/11/28 11:12:43;;;;;;;0.05;0.05;;;7.70;99.90;;;;;;5052746;28;20216;-69
2022/11/28 11:15:32;;;;;;;0.00;0.00;;;7.70;99.90;;;;;;5053213;28;20659;-69
2022/11/28 11:18:02;;;;;;;0.30;0.10;;;7.70;99.90;;;;;;5053032;28;20182;-68
2022/11/28 11:20:30;;;;;;;0.08;0.08;;;7.70;99.90;;;;;;5051859;28;20230;-68
2022/11/28 11:22:58;;;;;;;0.00;0.00;;;7.70;99.90;;;;;;5051446;28;20296;-68
2022/11/28 11:25:25;;;;;;;0.00;0.00;;;7.70;99.90;;;;;;5052918;28;20196;-68
2022/11/28 11:27:53;;;;;;;0.10;0.10;;;7.70;99.90;;;;;;5053123;28;20185;-68
2022/11/28 11:30:33;;;;;;;0.25;0.17;;;7.60;99.90;;;;;;5053269;28;20170;-69
2022/11/28 11:33:01;;;;;;;0.15;0.15;;;7.60;99.90;;;;;;5052527;28;20217;-68
2022/11/28 11:35:30;;;;;;;0.32;0.22;;;7.50;99.90;;;;;;5052528;28;20181;-69
2022/11/28 11:38:25;;;;;;;0.00;0.00;;;7.50;99.90;;;;;;5052791;28;20173;-68
2022/11/28 11:40:51;;;;;;;0.00;0.00;;;7.50;99.90;;;;;;5051048;28;20178;-68
2022/11/28 11:43:34;;;;;;;0.30;0.30;;;7.60;99.90;;;;;;5052685;28;20191;-68
2022/11/28 11:46:26;;;;;;;0.00;0.00;;;7.60;99.90;;;;;;5051339;28;20169;-69
2022/11/28 11:48:52;;;;;;;0.00;0.00;;;7.70;99.90;;;;;;5048249;28;20271;-68
2022/11/28 11:51:27;;;;;;;0.00;0.00;;;7.70;99.90;;;;;;5052111;28;20338;-68
2022/11/28 11:54:04;;;;;;;0.00;0.00;;;7.70;99.90;;;;;;5051819;28;20639;-68
2022/11/28 11:56:35;;;;;;;0.00;0.00;;;7.80;99.90;;;;;;5052298;28;20227;-68
2022/11/28 11:59:06;;;;;;;0.00;0.00;;;7.80;99.90;;;;;;5052134;28;20710;-68
2022/11/28 12:01:33;;;;;;;0.00;0.00;;;7.80;99.90;;;;;;5052474;28;20213;-68
2022/11/28 12:04:05;;;;;;;0.30;0.30;;;7.80;99.90;;;;;;5052248;28;20178;-68
2022/11/28 12:06:38;;;;;;;0.00;0.00;;;7.80;99.90;;;;;;5052491;28;20205;-67
2022/11/28 12:09:26;;;;;;;0.13;0.13;;;7.80;99.90;;;;;;5051815;28;20203;-68
2022/11/28 12:11:58;;;;;;;0.00;0.00;;;7.80;99.90;;;;;;5038307;28;20212;-67
2022/11/28 12:14:28;;;;;;;0.00;0.00;;;7.90;99.90;;;;;;5049739;28;20570;-67
2022/11/28 12:17:23;;;;;;;0.00;0.00;;;8.00;99.90;;;;;;5051714;28;20169;-68
2022/11/28 12:20:03;;;;;;;0.00;0.00;;;8.00;99.90;;;;;;5050004;28;20181;-68
2022/11/28 12:23:03;;;;;;;0.00;0.00;;;8.00;99.90;;;;;;5052020;28;20170;-67
2022/11/28 12:25:46;;;;;;;0.00;0.00;;;8.10;99.90;;;;;;5022363;28;20212;-68
2022/11/28 12:28:46;;;;;;;0.00;0.00;;;8.10;99.90;;;;;;5041805;28;20675;-67
2022/11/28 12:31:11;;;;;;;0.00;0.00;;;8.20;99.90;;;;;;5050162;28;20181;-68
2022/11/28 12:33:46;;;;;;;0.10;0.10;;;8.30;99.90;;;;;;5049540;28;20224;-68
2022/11/28 12:36:24;;;;;;;0.00;0.00;;;8.30;99.90;;;;;;5051930;28;20648;-67
2022/11/28 12:39:08;;;;;;;0.00;0.00;;;8.30;99.90;;;;;;5051307;28;20215;-67
2022/11/28 12:42:09;;;;;;;0.00;0.00;;;8.30;99.90;;;;;;5050967;28;20242;-67
2022/11/28 12:44:40;;;;;;;0.00;0.00;;;8.40;99.90;;;;;;5030018;28;20738;-67
2022/11/28 12:47:36;;;;;;;0.08;0.08;;;8.40;99.90;;;;;;5046318;28;20192;-67
2022/11/28 12:50:34;;;;;;;0.00;0.00;;;8.40;99.90;;;;;;5042623;28;20181;-68
2022/11/28 12:53:24;;;;;;;0.10;0.10;;;8.50;99.90;;;;;;5051124;28;20714;-68
2022/11/28 12:56:02;;;;;;;0.10;0.10;;;8.50;99.90;;;;;;5051128;28;20521;-68
2022/11/28 12:58:52;;;;;;;0.00;0.00;;;8.60;99.90;;;;;;5044081;28;20545;-68
2022/11/28 13:01:44;;;;;;;0.00;0.00;;;8.60;99.90;;;;;;5052009;28;20261;-68
2022/11/28 13:04:25;;;;;;;0.00;0.00;;;8.70;99.90;;;;;;5044439;28;20538;-68
2022/11/28 13:07:09;;;;;;;0.05;0.05;;;8.70;99.90;;;;;;5055445;28;20705;-68
2022/11/28 13:09:47;;;;;;;0.10;0.10;;;8.70;99.90;;;;;;5055226;28;20192;-68
2022/11/28 13:12:24;;;;;;;0.47;0.47;;;8.70;99.90;;;;;;5055298;28;20274;-68
2022/11/28 13:14:59;;;;;;;0.08;0.08;;;8.70;99.90;;;;;;5055192;28;20221;-68
2022/11/28 13:17:52;;;;;;;0.43;0.30;;;8.80;99.90;;;;;;5055414;28;20177;-68
2022/11/28 13:20:24;;;;;;;0.20;0.20;;;8.80;99.90;;;;;;5040536;28;20188;-67
2022/11/28 13:23:05;;;;;;;0.05;0.05;;;8.80;99.90;;;;;;5053858;28;20653;-69
2022/11/28 13:25:54;;;;;;;0.38;0.38;;;8.80;99.90;;;;;;5055124;28;20193;-69
2022/11/28 13:28:35;;;;;;;0.00;0.00;;;8.90;99.90;;;;;;5041801;28;20208;-69